createdAt,value
2022-12-01T00:00:38.245Z,98983.66
2022-12-01T00:01:39.637Z,98989.38
2022-12-01T00:02:41.116Z,98989.94
2022-12-01T00:03:42.509Z,98985.00
2022-12-01T00:04:43.828Z,98983.94
2022-12-01T00:05:45.162Z,98991.28
2022-12-01T00:06:46.497Z,98990.81
2022-12-01T00:07:48.338Z,98990.19
2022-12-01T00:08:51.036Z,98989.38
2022-12-01T00:09:52.401Z,98984.41
2022-12-01T00:10:53.835Z,98989.06
2022-12-01T00:11:55.242Z,98993.31
2022-12-01T00:12:57.822Z,98984.09
2022-12-01T00:13:59.191Z,98991.16
2022-12-01T00:15:00.514Z,98992.47
2022-12-01T00:16:17.363Z,98987.88
2022-12-01T00:17:18.780Z,98985.00
2022-12-01T00:18:20.108Z,98986.81
2022-12-01T00:19:24.432Z,98988.28
2022-12-01T00:20:25.854Z,98985.19
2022-12-01T00:21:27.521Z,98990.69
2022-12-01T00:22:28.900Z,98986.41
2022-12-01T00:23:30.231Z,98986.72
2022-12-01T00:24:31.643Z,98983.22
2022-12-01T00:25:33.007Z,98986.72
2022-12-01T00:26:34.340Z,98985.53
2022-12-01T00:27:35.686Z,98980.31
2022-12-01T00:28:37.068Z,98982.44
2022-12-01T00:29:38.472Z,98980.56
2022-12-01T00:30:39.772Z,98985.00
2022-12-01T00:31:41.199Z,98984.28
2022-12-01T00:32:42.659Z,98987.69
2022-12-01T00:33:44.007Z,98989.53
2022-12-01T00:34:45.400Z,98983.28
2022-12-01T00:35:46.755Z,98983.03
2022-12-01T00:36:49.620Z,98979.88
2022-12-01T00:37:50.987Z,98978.53
2022-12-01T00:38:53.274Z,98982.50
2022-12-01T00:39:54.590Z,98989.00
2022-12-01T00:40:55.972Z,98984.94
2022-12-01T00:41:57.286Z,98982.19
2022-12-01T00:42:58.604Z,98979.09
2022-12-01T00:43:59.947Z,98975.69
2022-12-01T00:45:01.310Z,98981.94
2022-12-01T00:46:02.761Z,98984.34
2022-12-01T00:47:04.220Z,98983.84
2022-12-01T00:48:05.574Z,98980.19
2022-12-01T00:49:06.906Z,98979.63
2022-12-01T00:50:08.367Z,98980.97
2022-12-01T00:51:09.731Z,98981.78
2022-12-01T00:52:11.826Z,98974.63
2022-12-01T00:53:13.185Z,98980.66
2022-12-01T00:54:14.808Z,98981.66
2022-12-01T00:55:16.230Z,98981.16
2022-12-01T00:56:17.607Z,98979.81
2022-12-01T00:57:18.934Z,98983.72
2022-12-01T00:58:20.644Z,98990.31
2022-12-01T00:59:22.019Z,98984.81
2022-12-01T01:00:23.394Z,98987.91
2022-12-01T01:01:24.749Z,98990.00
2022-12-01T01:02:26.189Z,98989.47
2022-12-01T01:03:27.916Z,98991.03
2022-12-01T01:04:29.822Z,98996.81
2022-12-01T01:05:31.168Z,98995.78
2022-12-01T01:06:32.518Z,98987.38
2022-12-01T01:07:33.963Z,98997.44
2022-12-01T01:08:35.658Z,98995.06
2022-12-01T01:09:36.974Z,98991.34
2022-12-01T01:10:38.908Z,98994.19
2022-12-01T01:11:40.348Z,98988.16
2022-12-01T01:12:41.728Z,98995.78
2022-12-01T01:13:43.026Z,98990.53
2022-12-01T01:14:44.426Z,98997.19
2022-12-01T01:15:45.759Z,99002.13
2022-12-01T01:16:47.228Z,98989.53
2022-12-01T01:17:48.591Z,98997.88
2022-12-01T01:18:49.966Z,98994.19
2022-12-01T01:19:52.495Z,98993.41
2022-12-01T01:20:57.614Z,99002.63
2022-12-01T01:21:58.949Z,98998.19
2022-12-01T01:23:00.269Z,98995.88
2022-12-01T01:24:01.646Z,99003.97
2022-12-01T01:25:03.038Z,99003.09
2022-12-01T01:26:34.903Z,98999.16
2022-12-01T01:27:36.303Z,99004.16
2022-12-01T01:28:37.695Z,99003.28
2022-12-01T01:29:39.039Z,99008.53
2022-12-01T01:30:40.432Z,98999.31
2022-12-01T01:31:41.801Z,99006.94
2022-12-01T01:32:43.132Z,99006.94
2022-12-01T01:33:44.520Z,99002.56
2022-12-01T01:34:45.849Z,99000.47
2022-12-01T01:35:47.226Z,99005.78
2022-12-01T01:36:48.600Z,99007.16
2022-12-01T01:37:52.871Z,99007.94
2022-12-01T01:38:54.791Z,99010.25
2022-12-01T01:39:56.106Z,99003.41
2022-12-01T01:40:57.475Z,99008.81
2022-12-01T01:41:58.823Z,99004.88
2022-12-01T01:43:00.181Z,99003.34
2022-12-01T01:44:02.472Z,99001.03
2022-12-01T01:45:03.963Z,99001.53
2022-12-01T01:46:05.706Z,99004.69
2022-12-01T01:47:07.119Z,99003.59
2022-12-01T01:48:09.823Z,98998.91
2022-12-01T01:49:12.886Z,99000.69
2022-12-01T01:50:15.934Z,98999.38
2022-12-01T01:51:17.841Z,99011.44
2022-12-01T01:52:19.241Z,99010.84
2022-12-01T01:53:21.064Z,99005.41
2022-12-01T01:54:26.331Z,99009.34
2022-12-01T01:55:29.209Z,99009.00
2022-12-01T01:56:30.711Z,99010.13
2022-12-01T01:57:32.756Z,99005.41
2022-12-01T01:58:34.556Z,99010.91
2022-12-01T01:59:43.224Z,99004.81
2022-12-01T02:00:45.017Z,99004.16
2022-12-01T02:01:48.660Z,99009.66
2022-12-01T02:02:50.344Z,99001.78
2022-12-01T02:03:53.314Z,99003.34
2022-12-01T02:05:00.498Z,99004.69
2022-12-01T02:06:04.608Z,99001.78
2022-12-01T02:07:07.647Z,98996.22
2022-12-01T02:08:09.047Z,99011.38
2022-12-01T02:09:11.918Z,99001.41
2022-12-01T02:10:14.223Z,98998.78
2022-12-01T02:11:30.955Z,99005.06
2022-12-01T02:12:47.494Z,98994.00
2022-12-01T02:14:07.705Z,99003.22
2022-12-01T02:15:15.356Z,98998.06
2022-12-01T02:16:19.829Z,99001.16
2022-12-01T02:17:41.901Z,98999.06
2022-12-01T02:18:49.590Z,99002.00
2022-12-01T02:20:02.782Z,98994.88
2022-12-01T02:21:04.086Z,99001.16
2022-12-01T02:22:22.057Z,98994.81
2022-12-01T02:23:26.209Z,98995.19
2022-12-01T02:24:39.854Z,98985.84
2022-12-01T02:25:53.136Z,98994.38
2022-12-01T02:27:03.600Z,98992.31
2022-12-01T02:28:23.018Z,98998.84
2022-12-01T02:29:42.960Z,98994.31
2022-12-01T02:30:48.545Z,98991.19
2022-12-01T02:31:57.233Z,98989.56
2022-12-01T02:33:06.854Z,98990.91
2022-12-01T02:34:11.082Z,98992.63
2022-12-01T02:35:20.774Z,98987.31
2022-12-01T02:36:34.378Z,98988.78
2022-12-01T02:37:45.794Z,98991.97
2022-12-01T02:39:02.616Z,98992.50
2022-12-01T02:40:26.429Z,98996.63
2022-12-01T02:41:31.690Z,98992.44
2022-12-01T02:42:52.526Z,98990.06
2022-12-01T02:43:53.853Z,98988.44
2022-12-01T02:44:56.396Z,98990.84
2022-12-01T02:45:57.803Z,98991.31
2022-12-01T02:46:59.204Z,98987.91
2022-12-01T02:48:01.875Z,98991.31
2022-12-01T02:49:07.597Z,98992.91
2022-12-01T02:50:10.203Z,98986.94
2022-12-01T02:51:18.014Z,98989.41
2022-12-01T02:52:21.830Z,98984.25
2022-12-01T02:53:23.180Z,98987.66
2022-12-01T02:54:25.599Z,98988.28
2022-12-01T02:55:26.995Z,98985.34
2022-12-01T02:56:28.799Z,98984.81
2022-12-01T02:57:30.387Z,98990.47
2022-12-01T02:58:31.741Z,98983.94
2022-12-01T02:59:33.121Z,98994.34
2022-12-01T03:00:34.511Z,98991.44
2022-12-01T03:01:42.025Z,98998.97
2022-12-01T03:02:55.704Z,98993.22
2022-12-01T03:04:02.509Z,98997.47
2022-12-01T03:05:06.795Z,98995.31
2022-12-01T03:06:14.321Z,98991.13
2022-12-01T03:07:34.670Z,98990.09
2022-12-01T03:08:47.098Z,98985.09
2022-12-01T03:09:48.729Z,98996.28
2022-12-01T03:10:54.365Z,98993.09
2022-12-01T03:12:15.987Z,98988.44
2022-12-01T03:13:32.735Z,98987.41
2022-12-01T03:14:34.052Z,98985.34
2022-12-01T03:15:55.707Z,98990.66
2022-12-01T03:16:59.395Z,98988.03
2022-12-01T03:18:10.243Z,98985.09
2022-12-01T03:19:19.837Z,98986.84
2022-12-01T03:20:30.081Z,98988.38
2022-12-01T03:21:33.528Z,98995.97
2022-12-01T03:22:39.049Z,98987.06
2022-12-01T03:23:42.548Z,98987.66
2022-12-01T03:24:46.200Z,98985.03
2022-12-01T03:25:49.014Z,98986.84
2022-12-01T03:26:53.867Z,98988.25
2022-12-01T03:28:20.200Z,98981.75
2022-12-01T03:29:21.766Z,98984.00
2022-12-01T03:30:24.132Z,98985.09
2022-12-01T03:31:28.330Z,98983.59
2022-12-01T03:32:34.002Z,98983.81
2022-12-01T03:33:43.180Z,98987.16
2022-12-01T03:34:50.094Z,98986.94
2022-12-01T03:35:53.953Z,98979.06
2022-12-01T03:37:07.598Z,98979.59
2022-12-01T03:38:14.421Z,98981.56
2022-12-01T03:39:19.183Z,98981.25
2022-12-01T03:40:22.255Z,98978.41
2022-12-01T03:41:26.072Z,98980.72
2022-12-01T03:42:29.887Z,98988.56
2022-12-01T03:43:36.618Z,98980.66
2022-12-01T03:44:44.674Z,98988.19
2022-12-01T03:45:59.236Z,98982.63
2022-12-01T03:47:05.105Z,98986.84
2022-12-01T03:48:07.075Z,98986.84
2022-12-01T03:49:08.942Z,98987.06
2022-12-01T03:50:11.394Z,98984.25
2022-12-01T03:51:33.519Z,98995.50
2022-12-01T03:52:40.546Z,98981.38
2022-12-01T03:53:41.826Z,98996.13
2022-12-01T03:55:03.471Z,98992.16
2022-12-01T03:56:06.400Z,98995.31
2022-12-01T03:57:10.482Z,98983.59
2022-12-01T03:58:18.507Z,98993.22
2022-12-01T03:59:21.311Z,98989.63
2022-12-01T04:00:23.015Z,98988.25
2022-12-01T04:01:24.478Z,98985.69
2022-12-01T04:02:27.289Z,98989.63
2022-12-01T04:03:28.661Z,98993.28
2022-12-01T04:04:30.047Z,98987.22
2022-12-01T04:05:32.281Z,98985.94
2022-12-01T04:06:33.956Z,98984.84
2022-12-01T04:07:35.937Z,98988.50
2022-12-01T04:08:37.507Z,98986.59
2022-12-01T04:09:39.691Z,98989.94
2022-12-01T04:10:41.018Z,98983.66
2022-12-01T04:11:42.797Z,98993.09
2022-12-01T04:12:44.242Z,98996.78
2022-12-01T04:13:45.547Z,98990.59
2022-12-01T04:14:46.885Z,98989.75
2022-12-01T04:15:57.051Z,98990.59
2022-12-01T04:16:58.382Z,98996.28
2022-12-01T04:17:59.770Z,98991.53
2022-12-01T04:19:01.234Z,98992.25
2022-12-01T04:20:03.275Z,98996.22
2022-12-01T04:21:04.732Z,98997.56
2022-12-01T04:22:06.059Z,98996.47
2022-12-01T04:23:07.404Z,98987.00
2022-12-01T04:24:09.018Z,98985.19
2022-12-01T04:25:10.675Z,98990.66
2022-12-01T04:26:15.707Z,98989.34
2022-12-01T04:27:17.379Z,98985.09
2022-12-01T04:28:18.706Z,98985.94
2022-12-01T04:29:20.099Z,98990.19
2022-12-01T04:30:21.391Z,98982.09
2022-12-01T04:31:22.789Z,98984.97
2022-12-01T04:32:24.207Z,98988.84
2022-12-01T04:33:25.557Z,98994.06
2022-12-01T04:34:26.985Z,98995.19
2022-12-01T04:35:28.341Z,98991.47
2022-12-01T04:36:30.854Z,98982.88
2022-12-01T04:37:32.166Z,98982.63
2022-12-01T04:38:33.498Z,98980.00
2022-12-01T04:39:34.870Z,98984.47
2022-12-01T04:40:37.849Z,98982.56
2022-12-01T04:41:39.252Z,98992.03
2022-12-01T04:42:40.621Z,98986.84
2022-12-01T04:43:41.978Z,98995.50
2022-12-01T04:44:43.367Z,98993.09
2022-12-01T04:45:44.703Z,98999.88
2022-12-01T04:46:46.032Z,98989.09
2022-12-01T04:47:47.383Z,98994.06
2022-12-01T04:48:49.088Z,98994.88
2022-12-01T04:49:50.631Z,98995.91
2022-12-01T04:50:52.112Z,98997.72
2022-12-01T04:51:53.438Z,98992.25
2022-12-01T04:52:54.812Z,98992.50
2022-12-01T04:53:56.349Z,98991.47
2022-12-01T04:54:57.653Z,98992.75
2022-12-01T04:55:59.779Z,98999.47
2022-12-01T04:57:01.143Z,98991.59
2022-12-01T04:58:02.473Z,99002.78
2022-12-01T04:59:03.796Z,98994.41
2022-12-01T05:00:05.544Z,98996.28
2022-12-01T05:01:09.035Z,98992.22
2022-12-01T05:02:10.602Z,98996.13
2022-12-01T05:03:15.045Z,98994.00
2022-12-01T05:04:16.762Z,98998.19
2022-12-01T05:05:18.135Z,98993.94
2022-12-01T05:06:23.894Z,99001.53
2022-12-01T05:07:25.283Z,99004.16
2022-12-01T05:08:26.640Z,99002.06
2022-12-01T05:09:28.025Z,98997.81
2022-12-01T05:10:29.396Z,98995.44
2022-12-01T05:11:31.889Z,98991.25
2022-12-01T05:12:33.215Z,98997.28
2022-12-01T05:13:36.716Z,98990.66
2022-12-01T05:14:38.194Z,98999.09
2022-12-01T05:15:39.595Z,99001.47
2022-12-01T05:16:40.913Z,99005.66
2022-12-01T05:17:42.326Z,99006.22
2022-12-01T05:18:47.026Z,99009.00
2022-12-01T05:19:48.782Z,99002.00
2022-12-01T05:20:50.392Z,99006.72
2022-12-01T05:21:52.165Z,98997.47
2022-12-01T05:23:05.254Z,99001.78
2022-12-01T05:24:08.067Z,99002.56
2022-12-01T05:25:09.416Z,98999.38
2022-12-01T05:26:11.234Z,99000.19
2022-12-01T05:27:12.611Z,99005.81
2022-12-01T05:28:13.964Z,99005.34
2022-12-01T05:29:15.450Z,99005.00
2022-12-01T05:30:16.856Z,98998.44
2022-12-01T05:31:18.228Z,98998.72
2022-12-01T05:32:19.661Z,98998.72
2022-12-01T05:33:21.881Z,98999.25
2022-12-01T05:34:23.261Z,99002.88
2022-12-01T05:35:24.689Z,99006.53
2022-12-01T05:36:26.041Z,99007.50
2022-12-01T05:37:27.383Z,99008.28
2022-12-01T05:38:31.569Z,99000.03
2022-12-01T05:39:36.101Z,99004.75
2022-12-01T05:40:38.149Z,99003.97
2022-12-01T05:41:39.500Z,99000.56
2022-12-01T05:42:40.808Z,99001.06
2022-12-01T05:43:42.101Z,99005.25
2022-12-01T05:44:43.456Z,99003.44
2022-12-01T05:45:44.873Z,99001.44
2022-12-01T05:46:46.281Z,99004.84
2022-12-01T05:47:47.606Z,99006.66
2022-12-01T05:48:49.035Z,99004.28
2022-12-01T05:49:50.995Z,99001.94
2022-12-01T05:50:52.484Z,98995.06
2022-12-01T05:51:53.808Z,98995.97
2022-12-01T05:52:55.228Z,99001.69
2022-12-01T05:53:58.623Z,98996.97
2022-12-01T05:54:59.942Z,99007.16
2022-12-01T05:56:01.277Z,99009.06
2022-12-01T05:57:02.684Z,99010.78
2022-12-01T05:58:04.080Z,99012.63
2022-12-01T05:59:05.394Z,99015.81
2022-12-01T06:00:07.082Z,99011.28
2022-12-01T06:01:12.702Z,99005.81
2022-12-01T06:02:14.102Z,99008.44
2022-12-01T06:03:15.466Z,99005.81
2022-12-01T06:04:16.854Z,99009.00
2022-12-01T06:05:18.255Z,99011.28
2022-12-01T06:06:19.847Z,99013.34
2022-12-01T06:07:21.470Z,99010.72
2022-12-01T06:08:23.028Z,99010.44
2022-12-01T06:09:24.447Z,99007.88
2022-12-01T06:10:25.744Z,99009.47
2022-12-01T06:11:27.059Z,99017.06
2022-12-01T06:12:28.431Z,99013.34
2022-12-01T06:13:29.834Z,99007.47
2022-12-01T06:14:31.210Z,99010.78
2022-12-01T06:15:32.525Z,99008.69
2022-12-01T06:16:34.215Z,99008.69
2022-12-01T06:17:39.917Z,99014.63
2022-12-01T06:18:41.708Z,99011.38
2022-12-01T06:19:43.002Z,99015.59
2022-12-01T06:20:44.342Z,99014.25
2022-12-01T06:21:45.715Z,99008.94
2022-12-01T06:22:47.047Z,99015.69
2022-12-01T06:23:48.408Z,99014.56
2022-12-01T06:24:49.777Z,99016.94
2022-12-01T06:25:51.133Z,99014.50
2022-12-01T06:26:52.589Z,99014.81
2022-12-01T06:27:57.619Z,99009.88
2022-12-01T06:29:01.148Z,99013.44
2022-12-01T06:30:03.479Z,99018.44
2022-12-01T06:31:05.113Z,99020.78
2022-12-01T06:32:06.565Z,99013.44
2022-12-01T06:33:07.992Z,99017.59
2022-12-01T06:34:09.915Z,99014.88
2022-12-01T06:35:11.267Z,99022.69
2022-12-01T06:36:12.611Z,99018.69
2022-12-01T06:37:13.951Z,99026.44
2022-12-01T06:38:15.274Z,99028.78
2022-12-01T06:39:17.200Z,99038.47
2022-12-01T06:40:18.636Z,99033.44
2022-12-01T06:41:20.018Z,99026.38
2022-12-01T06:42:21.384Z,99031.88
2022-12-01T06:43:22.736Z,99030.28
2022-12-01T06:44:24.064Z,99035.78
2022-12-01T06:45:25.379Z,99030.34
2022-12-01T06:46:26.750Z,99036.97
2022-12-01T06:47:28.102Z,99032.34
2022-12-01T06:48:29.826Z,99038.63
2022-12-01T06:49:31.191Z,99036.84
2022-12-01T06:50:32.552Z,99038.69
2022-12-01T06:51:33.945Z,99034.72
2022-12-01T06:52:36.406Z,99038.94
2022-12-01T06:53:37.726Z,99032.13
2022-12-01T06:54:39.031Z,99034.03
2022-12-01T06:55:40.628Z,99032.72
2022-12-01T06:56:42.218Z,99038.03
2022-12-01T06:57:43.967Z,99038.63
2022-12-01T06:58:45.789Z,99033.53
2022-12-01T06:59:47.730Z,99028.78
2022-12-01T07:00:52.274Z,99034.50
2022-12-01T07:01:53.940Z,99027.16
2022-12-01T07:02:55.369Z,99030.03
2022-12-01T07:03:56.780Z,99025.38
2022-12-01T07:04:58.126Z,99029.25
2022-12-01T07:06:05.990Z,99035.66
2022-12-01T07:07:07.772Z,99035.13
2022-12-01T07:08:09.155Z,99032.25
2022-12-01T07:09:10.552Z,99035.34
2022-12-01T07:10:12.517Z,99041.53
2022-12-01T07:11:15.134Z,99035.41
2022-12-01T07:12:16.483Z,99034.69
2022-12-01T07:13:17.842Z,99041.69
2022-12-01T07:14:27.888Z,99035.59
2022-12-01T07:15:29.268Z,99042.16
2022-12-01T07:16:31.011Z,99041.09
2022-12-01T07:17:32.442Z,99034.81
2022-12-01T07:18:34.193Z,99040.59
2022-12-01T07:19:35.688Z,99039.25
2022-12-01T07:20:37.072Z,99041.88
2022-12-01T07:21:38.438Z,99037.97
2022-12-01T07:22:39.809Z,99043.53
2022-12-01T07:23:41.510Z,99036.63
2022-12-01T07:24:42.846Z,99040.19
2022-12-01T07:25:44.227Z,99043.31
2022-12-01T07:26:45.583Z,99045.44
2022-12-01T07:27:46.927Z,99046.00
2022-12-01T07:28:48.314Z,99044.78
2022-12-01T07:29:49.969Z,99041.63
2022-12-01T07:30:51.581Z,99047.19
2022-12-01T07:31:52.976Z,99040.84
2022-12-01T07:32:54.355Z,99046.06
2022-12-01T07:33:55.743Z,99046.63
2022-12-01T07:34:57.113Z,99048.31
2022-12-01T07:35:58.734Z,99054.81
2022-12-01T07:37:00.078Z,99058.22
2022-12-01T07:38:01.403Z,99048.53
2022-12-01T07:39:06.785Z,99050.59
2022-12-01T07:40:08.630Z,99053.53
2022-12-01T07:41:11.336Z,99050.28
2022-12-01T07:42:12.683Z,99053.38
2022-12-01T07:43:14.089Z,99047.34
2022-12-01T07:44:15.486Z,99053.22
2022-12-01T07:45:17.269Z,99052.09
2022-12-01T07:46:23.106Z,99054.47
2022-12-01T07:47:25.434Z,99048.22
2022-12-01T07:48:29.159Z,99055.59
2022-12-01T07:49:30.486Z,99062.41
2022-12-01T07:50:31.863Z,99050.59
2022-12-01T07:51:33.270Z,99060.84
2022-12-01T07:52:34.579Z,99056.38
2022-12-01T07:53:35.940Z,99053.53
2022-12-01T07:54:37.334Z,99059.50
2022-12-01T07:55:38.684Z,99053.22
2022-12-01T07:56:40.354Z,99051.63
2022-12-01T07:57:41.770Z,99051.84
2022-12-01T07:58:43.426Z,99056.63
2022-12-01T07:59:44.795Z,99058.53
2022-12-01T08:00:46.143Z,99060.03
2022-12-01T08:01:47.521Z,99054.56
2022-12-01T08:02:48.951Z,99053.75
2022-12-01T08:03:51.536Z,99054.34
2022-12-01T08:04:52.851Z,99056.97
2022-12-01T08:05:57.553Z,99057.50
2022-12-01T08:06:58.884Z,99052.72
2022-12-01T08:08:00.271Z,99059.31
2022-12-01T08:09:01.698Z,99063.78
2022-12-01T08:10:03.539Z,99058.53
2022-12-01T08:11:06.156Z,99062.28
2022-12-01T08:12:07.984Z,99057.88
2022-12-01T08:13:12.928Z,99054.69
2022-12-01T08:14:18.439Z,99058.06
2022-12-01T08:15:19.869Z,99063.06
2022-12-01T08:16:23.026Z,99064.38
2022-12-01T08:17:24.330Z,99066.72
2022-12-01T08:18:25.768Z,99066.47
2022-12-01T08:19:27.194Z,99059.66
2022-12-01T08:20:28.622Z,99066.72
2022-12-01T08:21:31.162Z,99059.06
2022-12-01T08:22:32.765Z,99063.31
2022-12-01T08:23:34.163Z,99066.69
2022-12-01T08:24:35.530Z,99062.72
2022-12-01T08:25:36.911Z,99065.91
2022-12-01T08:26:38.299Z,99070.34
2022-12-01T08:27:39.622Z,99062.72
2022-12-01T08:28:41.111Z,99065.66
2022-12-01T08:29:42.418Z,99061.63
2022-12-01T08:30:43.822Z,99073.16
2022-12-01T08:31:45.311Z,99065.28
2022-12-01T08:32:46.612Z,99068.69
2022-12-01T08:33:48.355Z,99070.75
2022-12-01T08:34:53.503Z,99069.94
2022-12-01T08:35:55.205Z,99076.13
2022-12-01T08:36:56.513Z,99074.81
2022-12-01T08:37:57.924Z,99071.13
2022-12-01T08:38:59.279Z,99067.09
2022-12-01T08:40:00.583Z,99079.41
2022-12-01T08:41:02.190Z,99079.41
2022-12-01T08:42:03.581Z,99078.28
2022-12-01T08:43:05.227Z,99080.19
2022-12-01T08:44:06.592Z,99081.78
2022-12-01T08:45:08.225Z,99086.53
2022-12-01T08:46:10.249Z,99079.47
2022-12-01T08:47:15.714Z,99074.88
2022-12-01T08:48:20.034Z,99085.09
2022-12-01T08:49:21.376Z,99083.28
2022-12-01T08:50:22.751Z,99072.25
2022-12-01T08:51:24.108Z,99079.53
2022-12-01T08:52:25.587Z,99080.03
2022-12-01T08:53:26.946Z,99080.25
2022-12-01T08:54:28.314Z,99081.56
2022-12-01T08:55:29.623Z,99075.84
2022-12-01T08:56:35.592Z,99083.53
2022-12-01T08:57:37.034Z,99082.41
2022-12-01T08:58:38.431Z,99085.50
2022-12-01T08:59:39.783Z,99077.88
2022-12-01T09:00:41.160Z,99076.38
2022-12-01T09:01:42.587Z,99081.50
2022-12-01T09:02:44.079Z,99080.00
2022-12-01T09:03:45.595Z,99082.00
2022-12-01T09:04:46.946Z,99082.63
2022-12-01T09:05:48.267Z,99078.41
2022-12-01T09:06:50.469Z,99075.41
2022-12-01T09:07:51.870Z,99084.84
2022-12-01T09:08:53.215Z,99083.34
2022-12-01T09:09:54.518Z,99075.84
2022-12-01T09:10:55.850Z,99080.84
2022-12-01T09:11:57.178Z,99070.31
2022-12-01T09:12:58.540Z,99077.00
2022-12-01T09:13:59.875Z,99072.00
2022-12-01T09:15:01.275Z,99078.09
2022-12-01T09:16:07.136Z,99077.06
2022-12-01T09:17:08.951Z,99075.00
2022-12-01T09:18:10.308Z,99075.78
2022-12-01T09:19:13.329Z,99077.16
2022-12-01T09:20:14.932Z,99077.38
2022-12-01T09:21:17.829Z,99079.28
2022-12-01T09:22:19.454Z,99082.47
2022-12-01T09:23:21.458Z,99076.25
2022-12-01T09:24:22.857Z,99071.72
2022-12-01T09:25:24.206Z,99079.84
2022-12-01T09:26:26.009Z,99071.72
2022-12-01T09:27:27.505Z,99077.75
2022-12-01T09:28:29.035Z,99075.06
2022-12-01T09:29:30.392Z,99070.88
2022-12-01T09:30:31.707Z,99075.84
2022-12-01T09:31:33.276Z,99078.16
2022-12-01T09:32:34.691Z,99078.47
2022-12-01T09:33:36.407Z,99075.53
2022-12-01T09:34:37.761Z,99070.69
2022-12-01T09:35:39.412Z,99071.72
2022-12-01T09:36:40.726Z,99080.84
2022-12-01T09:37:42.055Z,99086.03
2022-12-01T09:38:43.610Z,99071.97
2022-12-01T09:39:44.939Z,99084.78
2022-12-01T09:40:46.252Z,99077.69
2022-12-01T09:41:53.644Z,99076.91
2022-12-01T09:42:55.190Z,99076.91
2022-12-01T09:44:16.807Z,99075.06
2022-12-01T09:45:24.944Z,99077.44
2022-12-01T09:46:28.583Z,99076.97
2022-12-01T09:47:31.537Z,99084.38
2022-12-01T09:48:43.788Z,99069.88
2022-12-01T09:49:55.907Z,99072.03
2022-12-01T09:50:57.304Z,99071.25
2022-12-01T09:51:59.754Z,99069.47
2022-12-01T09:53:03.206Z,99072.91
2022-12-01T09:54:04.664Z,99068.69
2022-12-01T09:55:11.423Z,99066.59
2022-12-01T09:56:18.975Z,99067.06
2022-12-01T09:57:28.332Z,99068.75
2022-12-01T09:58:30.167Z,99068.81
2022-12-01T09:59:33.702Z,99064.94
2022-12-01T10:00:37.013Z,99070.19
2022-12-01T10:01:41.736Z,99059.16
2022-12-01T10:02:49.032Z,99065.47
2022-12-01T10:03:54.246Z,99076.00
2022-12-01T10:04:56.940Z,99064.47
2022-12-01T10:07:26.623Z,99072.72
2022-12-01T10:08:29.876Z,99072.72
2022-12-01T10:09:50.006Z,99066.16
2022-12-01T10:10:53.046Z,99065.06
2022-12-01T10:11:57.951Z,99063.50
2022-12-01T10:12:59.435Z,99065.56
2022-12-01T10:14:01.062Z,99068.75
2022-12-01T10:15:18.061Z,99064.06
2022-12-01T10:16:24.002Z,99061.66
2022-12-01T10:17:25.316Z,99058.56
2022-12-01T10:18:41.742Z,99054.84
2022-12-01T10:19:52.526Z,99045.13
2022-12-01T10:21:02.722Z,99043.06
2022-12-01T10:22:15.994Z,99045.69
2022-12-01T10:23:22.758Z,99051.84
2022-12-01T10:24:39.354Z,99049.22
2022-12-01T10:25:44.731Z,99047.06
2022-12-01T10:26:51.387Z,99047.38
2022-12-01T10:28:11.093Z,99037.38
2022-12-01T10:29:27.213Z,99040.50
2022-12-01T10:30:28.780Z,99034.25
2022-12-01T10:31:53.620Z,99035.56
2022-12-01T10:32:56.486Z,99033.25
2022-12-01T10:34:14.259Z,99028.69
2022-12-01T10:35:16.616Z,99029.19
2022-12-01T10:36:17.958Z,99029.22
2022-12-01T10:37:24.244Z,99030.06
2022-12-01T10:38:30.797Z,99031.06
2022-12-01T10:39:37.607Z,99029.53
2022-12-01T10:40:39.501Z,99035.09
2022-12-01T10:41:41.254Z,99033.56
2022-12-01T10:42:42.596Z,99029.91
2022-12-01T10:43:45.877Z,99033.25
2022-12-01T10:44:47.519Z,99035.84
2022-12-01T10:45:49.344Z,99035.09
2022-12-01T10:46:53.977Z,99028.00
2022-12-01T10:48:13.315Z,99032.72
2022-12-01T10:49:16.127Z,99032.38
2022-12-01T10:50:26.620Z,99031.88
2022-12-01T10:51:28.977Z,99031.44
2022-12-01T10:52:31.857Z,99031.94
2022-12-01T10:53:34.260Z,99026.38
2022-12-01T10:54:36.921Z,99025.78
2022-12-01T10:55:43.447Z,99026.59
2022-12-01T10:56:48.973Z,99025.75
2022-12-01T10:57:50.756Z,99016.81
2022-12-01T10:58:53.859Z,99018.44
2022-12-01T11:00:02.249Z,99021.34
2022-12-01T11:01:05.712Z,99020.28
2022-12-01T11:02:15.083Z,99015.00
2022-12-01T11:03:22.313Z,99020.81
2022-12-01T11:04:38.956Z,99018.19
2022-12-01T11:05:42.191Z,99018.44
2022-12-01T11:06:48.535Z,99020.50
2022-12-01T11:07:50.218Z,99018.91
2022-12-01T11:08:53.512Z,99014.81
2022-12-01T11:10:02.091Z,99009.78
2022-12-01T11:11:03.723Z,99011.91
2022-12-01T11:12:05.171Z,99015.81
2022-12-01T11:13:14.698Z,99009.75
2022-12-01T11:14:20.514Z,99010.78
2022-12-01T11:15:32.128Z,99007.41
2022-12-01T11:16:41.493Z,99012.75
2022-12-01T11:17:44.736Z,99013.59
2022-12-01T11:18:46.099Z,99013.84
2022-12-01T11:19:47.863Z,99011.97
2022-12-01T11:21:04.485Z,99010.13
2022-12-01T11:22:29.160Z,99014.06
2022-12-01T11:23:30.500Z,99011.25
2022-12-01T11:24:40.920Z,99006.81
2022-12-01T11:25:42.395Z,99005.44
2022-12-01T11:26:43.756Z,99003.38
2022-12-01T11:27:52.430Z,98997.34
2022-12-01T11:29:12.223Z,98995.78
2022-12-01T11:30:30.049Z,99001.88
2022-12-01T11:31:42.225Z,99005.56
2022-12-01T11:32:51.170Z,98996.38
2022-12-01T11:33:53.807Z,98993.75
2022-12-01T11:34:57.269Z,98994.53
2022-12-01T11:35:58.634Z,98996.41
2022-12-01T11:37:15.500Z,98991.50
2022-12-01T11:38:29.900Z,98995.94
2022-12-01T11:39:31.660Z,98990.94
2022-12-01T11:40:37.284Z,98984.16
2022-12-01T11:41:40.275Z,98989.41
2022-12-01T11:42:42.301Z,98991.78
2022-12-01T11:43:50.527Z,98984.69
2022-12-01T11:45:05.355Z,98986.81
2022-12-01T11:46:08.599Z,98983.19
2022-12-01T11:47:24.831Z,98986.13
2022-12-01T11:48:28.180Z,98980.09
2022-12-01T11:49:29.599Z,98977.22
2022-12-01T11:50:32.375Z,98979.53
2022-12-01T11:51:34.599Z,98977.13
2022-12-01T11:52:45.345Z,98980.03
2022-12-01T11:53:47.156Z,98977.41
2022-12-01T11:55:21.126Z,98984.28
2022-12-01T11:56:28.143Z,98981.91
2022-12-01T11:57:35.017Z,98982.97
2022-12-01T11:58:36.988Z,98980.53
2022-12-01T11:59:38.412Z,98982.38
2022-12-01T12:01:00.002Z,98979.75
2022-12-01T12:02:01.499Z,98980.31
2022-12-01T12:03:17.050Z,98982.94
2022-12-01T12:04:38.231Z,98977.19
2022-12-01T12:05:45.560Z,98976.34
2022-12-01T12:06:56.330Z,98980.81
2022-12-01T12:08:23.473Z,98974.28
2022-12-01T12:09:44.923Z,98976.09
2022-12-01T12:11:18.820Z,98970.31
2022-12-01T12:12:20.132Z,98970.38
2022-12-01T12:13:32.011Z,98976.44
2022-12-01T12:14:33.546Z,98975.59
2022-12-01T12:15:37.906Z,98974.59
2022-12-01T12:16:45.769Z,98971.44
2022-12-01T12:17:53.378Z,98972.94
2022-12-01T12:19:03.560Z,98973.25
2022-12-01T12:20:11.134Z,98970.84
2022-12-01T12:21:32.833Z,98965.31
2022-12-01T12:22:52.258Z,98966.91
2022-12-01T12:23:56.473Z,98965.63
2022-12-01T12:24:57.777Z,98966.91
2022-12-01T12:26:01.860Z,98969.81
2022-12-01T12:27:13.169Z,98971.69
2022-12-01T12:28:23.342Z,98966.16
2022-12-01T12:29:39.459Z,98968.28
2022-12-01T12:30:57.681Z,98965.94
2022-12-01T12:32:04.906Z,98963.03
2022-12-01T12:33:06.265Z,98959.66
2022-12-01T12:34:07.573Z,98956.75